createdAt,value
2022-08-29T00:01:13.401Z,23.45
2022-08-29T00:03:43.122Z,23.49
2022-08-29T00:06:11.390Z,23.53
2022-08-29T00:08:39.662Z,23.58
2022-08-29T00:11:08.097Z,23.60
2022-08-29T00:13:36.344Z,23.64
2022-08-29T00:16:04.606Z,23.73
2022-08-29T00:18:32.664Z,23.81
2022-08-29T00:21:00.236Z,23.89
2022-08-29T00:23:28.008Z,23.99
2022-08-29T00:25:56.381Z,24.08
2022-08-29T00:28:24.605Z,24.19
2022-08-29T00:30:53.306Z,24.25
2022-08-29T00:33:20.792Z,24.28
2022-08-29T00:35:48.764Z,24.31
2022-08-29T00:38:19.211Z,24.35
2022-08-29T00:40:52.797Z,24.38
2022-08-29T00:43:32.229Z,24.41
2022-08-29T00:46:02.518Z,24.42
2022-08-29T00:48:30.857Z,24.40
2022-08-29T00:51:07.861Z,24.40
2022-08-29T00:53:41.523Z,24.39
2022-08-29T00:56:12.794Z,24.39
2022-08-29T00:58:55.684Z,24.39
2022-08-29T01:01:24.087Z,24.39
2022-08-29T01:03:53.402Z,24.40
2022-08-29T01:06:22.501Z,24.37
2022-08-29T01:08:57.652Z,24.28
2022-08-29T01:11:48.867Z,24.18
2022-08-29T01:14:18.795Z,24.14
2022-08-29T01:16:48.597Z,24.08
2022-08-29T01:19:30.483Z,24.09
2022-08-29T01:23:00.830Z,24.14
2022-08-29T01:25:38.048Z,24.11
2022-08-29T01:28:18.595Z,24.11
2022-08-29T01:31:10.753Z,24.09
2022-08-29T01:33:54.431Z,24.09
2022-08-29T01:36:53.726Z,24.06
2022-08-29T01:39:29.168Z,24.05
2022-08-29T01:41:58.589Z,24.06
2022-08-29T01:44:26.451Z,24.07
2022-08-29T01:47:02.861Z,24.08
2022-08-29T01:49:35.065Z,23.99
2022-08-29T01:52:07.359Z,23.86
2022-08-29T01:54:35.018Z,23.77
2022-08-29T01:57:02.782Z,23.62
2022-08-29T01:59:31.886Z,23.46
2022-08-29T02:02:16.341Z,23.29
2022-08-29T02:04:47.350Z,23.27
2022-08-29T02:07:18.801Z,23.21
2022-08-29T02:09:47.065Z,23.20
2022-08-29T02:12:15.902Z,23.22
2022-08-29T02:14:44.550Z,23.24
2022-08-29T02:17:12.126Z,23.33
2022-08-29T02:19:41.702Z,23.41
2022-08-29T02:22:10.097Z,23.51
2022-08-29T02:24:37.998Z,23.64
2022-08-29T02:27:06.082Z,23.75
2022-08-29T02:29:37.703Z,23.85
2022-08-29T02:32:13.807Z,23.92
2022-08-29T02:34:47.812Z,23.99
2022-08-29T02:37:17.639Z,24.05
2022-08-29T02:39:45.390Z,24.14
2022-08-29T02:42:12.924Z,24.16
2022-08-29T02:44:40.383Z,24.16
2022-08-29T02:47:09.405Z,24.14
2022-08-29T02:49:37.118Z,24.12
2022-08-29T02:52:06.824Z,24.13
2022-08-29T02:54:34.975Z,24.15
2022-08-29T02:57:02.542Z,24.14
2022-08-29T02:59:30.082Z,24.06
2022-08-29T03:01:58.049Z,24.06
2022-08-29T03:04:25.667Z,24.08
2022-08-29T03:06:53.591Z,24.07
2022-08-29T03:09:21.477Z,23.79
2022-08-29T03:11:48.986Z,23.68
2022-08-29T03:14:16.470Z,23.65
2022-08-29T03:16:44.271Z,23.65
2022-08-29T03:19:11.857Z,23.61
2022-08-29T03:21:39.355Z,23.55
2022-08-29T03:24:07.354Z,23.53
2022-08-29T03:26:34.854Z,23.50
2022-08-29T03:29:02.379Z,23.51
2022-08-29T03:31:30.672Z,23.51
2022-08-29T03:33:58.790Z,23.60
2022-08-29T03:36:29.488Z,23.69
2022-08-29T03:38:57.361Z,23.64
2022-08-29T03:41:28.912Z,23.53
2022-08-29T03:43:58.894Z,23.51
2022-08-29T03:46:28.067Z,23.45
2022-08-29T03:48:55.660Z,23.42
2022-08-29T03:51:24.118Z,23.40
2022-08-29T03:53:58.661Z,23.34
2022-08-29T03:56:27.433Z,23.32
2022-08-29T03:58:56.479Z,23.27
2022-08-29T04:01:28.528Z,23.25
2022-08-29T04:03:57.917Z,23.23
2022-08-29T04:06:28.471Z,23.20
2022-08-29T04:08:57.390Z,23.13
2022-08-29T04:11:28.134Z,23.11
2022-08-29T04:13:55.929Z,23.11
2022-08-29T04:16:30.540Z,23.13
2022-08-29T04:18:59.756Z,23.15
2022-08-29T04:21:27.894Z,23.22
2022-08-29T04:23:55.513Z,23.27
2022-08-29T04:26:38.964Z,23.34
2022-08-29T04:29:12.344Z,23.43
2022-08-29T04:31:42.586Z,23.56
2022-08-29T04:34:13.293Z,23.67
2022-08-29T04:36:45.398Z,23.77
2022-08-29T04:39:14.715Z,23.87
2022-08-29T04:41:43.526Z,23.94
2022-08-29T04:44:12.981Z,23.99
2022-08-29T04:46:40.655Z,24.02
2022-08-29T04:49:08.438Z,24.05
2022-08-29T04:51:36.865Z,24.08
2022-08-29T04:54:06.695Z,24.11
2022-08-29T04:56:37.552Z,24.10
2022-08-29T04:59:05.280Z,24.10
2022-08-29T05:01:33.412Z,24.13
2022-08-29T05:04:01.262Z,24.14
2022-08-29T05:06:28.996Z,24.15
2022-08-29T05:08:59.420Z,24.17
2022-08-29T05:11:46.288Z,24.11
2022-08-29T05:14:14.217Z,24.02
2022-08-29T05:16:42.038Z,23.95
2022-08-29T05:19:10.162Z,23.94
2022-08-29T05:21:39.344Z,23.94
2022-08-29T05:24:08.992Z,23.97
2022-08-29T05:26:42.125Z,23.97
2022-08-29T05:29:12.660Z,24.03
2022-08-29T05:31:42.276Z,24.02
2022-08-29T05:34:32.066Z,24.06
2022-08-29T05:37:05.975Z,24.12
2022-08-29T05:39:35.673Z,24.19
2022-08-29T05:42:05.002Z,24.26
2022-08-29T05:44:35.171Z,24.31
2022-08-29T05:47:06.989Z,24.37
2022-08-29T05:49:42.214Z,24.42
2022-08-29T05:52:11.624Z,24.48
2022-08-29T05:54:41.568Z,24.55
2022-08-29T05:57:18.138Z,24.60
2022-08-29T05:59:49.221Z,24.68
2022-08-29T06:02:18.268Z,24.74
2022-08-29T06:04:46.573Z,24.75
2022-08-29T06:07:15.350Z,24.79
2022-08-29T06:09:44.581Z,24.81
2022-08-29T06:12:15.305Z,24.85
2022-08-29T06:14:49.992Z,24.90
2022-08-29T06:17:18.907Z,24.93
2022-08-29T06:19:49.868Z,24.97
2022-08-29T06:22:19.322Z,25.01
2022-08-29T06:24:47.296Z,25.05
2022-08-29T06:27:15.159Z,25.11
2022-08-29T06:29:43.542Z,25.15
2022-08-29T06:32:13.747Z,25.23
2022-08-29T06:34:41.881Z,25.26
2022-08-29T06:37:09.792Z,25.30
2022-08-29T06:39:37.376Z,25.32
2022-08-29T06:42:05.333Z,25.30
2022-08-29T06:44:33.133Z,25.29
2022-08-29T06:47:00.974Z,25.31
2022-08-29T06:49:28.875Z,25.34
2022-08-29T06:51:58.369Z,25.34
2022-08-29T06:54:28.834Z,25.39
2022-08-29T06:56:58.311Z,25.43
2022-08-29T06:59:26.923Z,25.47
2022-08-29T07:01:58.008Z,25.54
2022-08-29T07:04:26.642Z,25.61
2022-08-29T07:06:54.826Z,25.68
2022-08-29T07:09:22.448Z,25.76
2022-08-29T07:11:50.265Z,25.87
2022-08-29T07:14:17.899Z,25.98
2022-08-29T07:16:45.358Z,26.08
2022-08-29T07:19:13.658Z,26.18
2022-08-29T07:21:41.446Z,26.26
2022-08-29T07:24:09.857Z,26.31
2022-08-29T07:26:43.237Z,26.36
2022-08-29T07:29:17.883Z,26.39
2022-08-29T07:31:47.418Z,26.41
2022-08-29T07:34:20.609Z,26.43
2022-08-29T07:36:48.766Z,26.41
2022-08-29T07:39:19.826Z,26.40
2022-08-29T07:41:47.927Z,26.41
2022-08-29T07:44:17.230Z,26.44
2022-08-29T07:46:45.985Z,26.48
2022-08-29T07:49:13.750Z,26.48
2022-08-29T07:51:44.690Z,26.46
2022-08-29T07:54:16.816Z,26.36
2022-08-29T07:56:47.409Z,26.31
2022-08-29T07:59:16.761Z,26.30
2022-08-29T08:01:44.778Z,26.36
2022-08-29T08:04:13.469Z,26.43
2022-08-29T08:06:43.121Z,26.52
2022-08-29T08:09:12.078Z,26.59
2022-08-29T08:11:40.389Z,26.58
2022-08-29T08:14:08.177Z,26.59
2022-08-29T08:16:35.905Z,26.55
2022-08-29T08:19:04.660Z,26.48
2022-08-29T08:21:32.525Z,26.41
2022-08-29T08:24:00.822Z,26.29
2022-08-29T08:26:28.791Z,26.24
2022-08-29T08:28:56.304Z,26.20
2022-08-29T08:31:24.250Z,26.18
2022-08-29T08:33:52.750Z,26.19
2022-08-29T08:36:26.545Z,26.24
2022-08-29T08:38:55.839Z,26.32
2022-08-29T08:42:05.591Z,26.46
2022-08-29T08:45:14.812Z,26.61
2022-08-29T08:47:54.230Z,26.76
2022-08-29T08:50:54.280Z,26.87
2022-08-29T08:53:39.639Z,26.99
2022-08-29T08:56:44.402Z,27.02
2022-08-29T08:59:43.419Z,27.11
2022-08-29T09:02:40.056Z,27.24
2022-08-29T09:05:27.435Z,27.34
2022-08-29T09:08:17.957Z,27.35
2022-08-29T09:11:14.706Z,27.46
2022-08-29T09:14:28.837Z,27.56
2022-08-29T09:16:59.332Z,27.60
2022-08-29T09:19:27.287Z,27.58
2022-08-29T09:22:20.272Z,27.48
2022-08-29T09:25:02.201Z,27.40
2022-08-29T09:27:34.145Z,27.35
2022-08-29T09:30:08.280Z,27.27
2022-08-29T09:33:09.943Z,27.25
2022-08-29T09:35:46.701Z,27.33
2022-08-29T09:38:25.746Z,27.41
2022-08-29T09:40:59.822Z,27.57
2022-08-29T09:43:39.718Z,27.69
2022-08-29T09:46:16.396Z,27.78
2022-08-29T09:49:16.318Z,27.94
2022-08-29T09:51:48.591Z,28.01
2022-08-29T09:54:27.642Z,28.04
2022-08-29T09:57:26.325Z,28.16
2022-08-29T10:00:24.532Z,28.21
2022-08-29T10:02:58.883Z,28.27
2022-08-29T10:05:37.083Z,28.34
2022-08-29T10:08:07.461Z,28.43
2022-08-29T10:10:36.571Z,28.51
2022-08-29T10:13:23.416Z,28.60
2022-08-29T10:16:28.525Z,28.69
2022-08-29T10:19:34.191Z,28.66
2022-08-29T10:23:03.088Z,28.62
2022-08-29T10:25:41.666Z,28.68
2022-08-29T10:28:27.935Z,28.59
2022-08-29T10:31:20.308Z,28.46
2022-08-29T10:34:36.008Z,28.43
2022-08-29T10:37:46.541Z,28.45
2022-08-29T11:02:54.623Z,28.86
2022-08-29T11:05:28.376Z,28.97
2022-08-29T11:08:09.684Z,29.03
2022-08-29T11:10:44.214Z,29.09
2022-08-29T11:13:39.440Z,29.19
2022-08-29T11:16:29.416Z,29.36
2022-08-29T11:19:26.756Z,29.53
2022-08-29T11:22:20.264Z,29.64
2022-08-29T11:25:16.108Z,29.76
2022-08-29T11:28:04.981Z,29.86
2022-08-29T11:30:52.674Z,29.82
2022-08-29T11:33:41.367Z,29.82
2022-08-29T11:36:26.172Z,29.89
2022-08-29T11:39:14.914Z,29.93
2022-08-29T11:41:45.296Z,29.98
2022-08-29T11:44:36.405Z,30.00
2022-08-29T11:47:41.163Z,30.03
2022-08-29T11:50:36.019Z,30.05
2022-08-29T11:53:20.987Z,30.14
2022-08-29T11:56:12.995Z,30.23
2022-08-29T11:58:48.132Z,30.33
2022-08-29T12:01:25.104Z,30.34
2022-08-29T12:03:55.732Z,30.36
2022-08-29T12:06:38.261Z,30.46
2022-08-29T12:09:25.448Z,30.53
2022-08-29T12:11:59.526Z,30.57
2022-08-29T12:14:39.116Z,30.61
2022-08-29T12:17:31.888Z,30.64
2022-08-29T12:20:14.153Z,30.63
2022-08-29T12:23:05.221Z,30.68
2022-08-29T12:26:21.598Z,30.83
2022-08-29T12:29:01.818Z,30.90
2022-08-29T12:32:18.143Z,31.02
2022-08-29T12:35:27.963Z,31.14
2022-08-29T12:38:04.660Z,31.27
2022-08-29T12:41:27.103Z,31.49
2022-08-29T12:43:59.997Z,31.73
2022-08-29T12:46:43.278Z,31.88
2022-08-29T12:49:24.618Z,32.05
2022-08-29T12:52:08.153Z,32.25
2022-08-29T12:54:41.415Z,32.37
2022-08-29T12:57:35.749Z,32.43
2022-08-29T13:00:16.665Z,32.42
2022-08-29T13:03:01.306Z,32.46
2022-08-29T13:05:31.832Z,32.48
2022-08-29T13:08:09.653Z,32.56
2022-08-29T13:11:06.128Z,32.63
2022-08-29T13:13:35.749Z,32.66
2022-08-29T13:16:08.071Z,32.72
2022-08-29T13:18:49.065Z,32.88
2022-08-29T13:21:31.837Z,33.01
2022-08-29T13:24:16.732Z,33.11
2022-08-29T13:27:04.554Z,33.15
2022-08-29T13:29:36.041Z,33.27
2022-08-29T13:32:14.080Z,33.38
2022-08-29T13:35:16.997Z,33.53
2022-08-29T13:38:06.494Z,33.51
2022-08-29T13:40:49.875Z,33.54
2022-08-29T13:43:44.071Z,33.70
2022-08-29T13:46:25.707Z,33.85
2022-08-29T13:49:03.359Z,34.09
2022-08-29T13:51:31.382Z,34.24
2022-08-29T13:53:58.881Z,34.44
2022-08-29T13:56:33.648Z,34.61
2022-08-29T13:59:02.656Z,34.88
2022-08-29T14:02:07.095Z,35.20
2022-08-29T14:04:37.290Z,35.45
2022-08-29T14:07:07.393Z,35.69
2022-08-29T14:09:39.851Z,36.00
2022-08-29T14:12:08.108Z,36.25
2022-08-29T14:14:35.988Z,36.44
2022-08-29T14:17:04.132Z,36.43
2022-08-29T14:19:32.461Z,36.41
2022-08-29T14:22:02.252Z,36.43
2022-08-29T14:24:33.431Z,36.59
2022-08-29T14:27:03.546Z,36.73
2022-08-29T14:29:33.790Z,36.77
2022-08-29T14:32:03.202Z,36.81
2022-08-29T14:34:32.979Z,36.97
2022-08-29T14:37:03.821Z,37.07
2022-08-29T14:39:31.711Z,37.10
2022-08-29T14:41:59.276Z,37.15
2022-08-29T14:44:29.663Z,36.91
2022-08-29T14:46:58.069Z,36.72
2022-08-29T14:49:25.848Z,36.61
2022-08-29T14:51:53.738Z,36.59
2022-08-29T14:54:21.707Z,36.67
2022-08-29T14:56:50.270Z,36.74
2022-08-29T14:59:20.638Z,36.85
2022-08-29T15:01:53.879Z,36.88
2022-08-29T15:04:36.684Z,36.92
2022-08-29T15:07:12.266Z,36.99
2022-08-29T15:09:42.045Z,37.13
2022-08-29T15:12:15.789Z,37.18
2022-08-29T15:14:44.199Z,37.14
2022-08-29T15:17:13.152Z,37.28
2022-08-29T15:22:29.088Z,37.40
2022-08-29T15:24:56.626Z,37.52
2022-08-29T15:27:27.608Z,37.60
2022-08-29T15:29:57.757Z,37.68
2022-08-29T15:32:26.005Z,37.57
2022-08-29T15:34:53.722Z,37.47
2022-08-29T15:37:22.128Z,37.38
2022-08-29T15:39:55.056Z,37.31
2022-08-29T15:42:28.964Z,37.29
2022-08-29T15:44:59.077Z,37.19
2022-08-29T15:47:27.906Z,37.03
2022-08-29T15:49:55.698Z,36.96
2022-08-29T15:52:23.330Z,36.97
2022-08-29T15:54:51.386Z,36.97
2022-08-29T15:57:19.986Z,36.87
2022-08-29T16:00:03.535Z,36.90
2022-08-29T16:02:39.681Z,36.90
2022-08-29T16:05:07.838Z,36.86
2022-08-29T16:07:35.348Z,36.49
2022-08-29T16:10:05.889Z,35.99
2022-08-29T16:12:39.859Z,35.60
2022-08-29T16:15:09.994Z,35.05
2022-08-29T16:17:38.004Z,34.35
2022-08-29T16:20:11.560Z,33.66
2022-08-29T16:22:41.255Z,33.04
2022-08-29T16:25:11.672Z,32.50
2022-08-29T16:27:39.898Z,32.03
2022-08-29T16:30:10.471Z,31.56
2022-08-29T16:32:38.328Z,31.14
2022-08-29T16:35:07.796Z,30.75
2022-08-29T16:37:35.906Z,30.49
2022-08-29T16:40:05.521Z,30.22
2022-08-29T16:42:34.153Z,30.02
2022-08-29T16:45:02.008Z,29.81
2022-08-29T16:47:29.718Z,29.61
2022-08-29T16:49:57.330Z,29.40
2022-08-29T16:52:25.191Z,29.22
2022-08-29T16:54:53.766Z,29.04
2022-08-29T16:57:22.012Z,28.88
2022-08-29T16:59:50.422Z,28.67
2022-08-29T17:02:18.079Z,28.55
2022-08-29T17:04:46.994Z,28.47
2022-08-29T17:07:14.652Z,28.36
2022-08-29T17:09:42.173Z,28.24
2022-08-29T17:12:10.031Z,28.20
2022-08-29T17:14:37.518Z,28.19
2022-08-29T17:17:05.422Z,28.18
2022-08-29T17:19:34.152Z,28.16
2022-08-29T17:22:02.280Z,28.08
2022-08-29T17:24:30.064Z,28.03
2022-08-29T17:26:57.846Z,27.96
2022-08-29T17:29:25.634Z,27.91
2022-08-29T17:31:53.619Z,27.90
2022-08-29T17:34:21.393Z,27.79
2022-08-29T17:36:49.772Z,27.74
2022-08-29T17:39:17.514Z,27.65
2022-08-29T17:41:52.059Z,27.59
2022-08-29T17:44:24.317Z,27.54
2022-08-29T17:46:52.224Z,27.53
2022-08-29T17:49:19.964Z,27.53
2022-08-29T17:51:53.548Z,27.54
2022-08-29T17:54:24.943Z,27.54
2022-08-29T17:56:56.846Z,27.53
2022-08-29T17:59:29.391Z,27.52
2022-08-29T18:01:58.668Z,27.43
2022-08-29T18:04:27.676Z,27.36
2022-08-29T18:06:56.189Z,27.25
2022-08-29T18:09:25.148Z,27.18
2022-08-29T18:11:54.657Z,27.14
2022-08-29T18:14:23.801Z,27.13
2022-08-29T18:16:55.896Z,27.15
2022-08-29T18:19:24.674Z,27.12
2022-08-29T18:21:53.442Z,27.11
2022-08-29T18:24:21.479Z,27.09
2022-08-29T18:26:50.189Z,27.06
2022-08-29T18:29:19.175Z,26.98
2022-08-29T18:31:47.556Z,26.92
2022-08-29T18:34:17.632Z,26.82
2022-08-29T18:36:48.557Z,26.78
2022-08-29T18:39:19.543Z,26.77
2022-08-29T18:41:47.562Z,26.77
2022-08-29T18:44:15.116Z,26.78
2022-08-29T18:46:47.984Z,26.77
2022-08-29T18:49:17.289Z,26.72
2022-08-29T18:51:45.367Z,26.68
2022-08-29T18:54:19.060Z,26.61
2022-08-29T18:56:48.509Z,26.58
2022-08-29T18:59:16.105Z,26.60
2022-08-29T19:01:43.821Z,26.63
2022-08-29T19:04:11.700Z,26.65
2022-08-29T19:06:39.232Z,26.63
2022-08-29T19:09:06.742Z,26.57
2022-08-29T19:11:34.576Z,26.43
2022-08-29T19:14:02.343Z,26.22
2022-08-29T19:16:30.919Z,26.02
2022-08-29T19:18:59.031Z,25.92
2022-08-29T19:21:26.676Z,25.76
2022-08-29T19:23:54.699Z,25.64
2022-08-29T19:26:33.194Z,25.51
2022-08-29T19:29:06.670Z,25.37
2022-08-29T19:31:34.516Z,25.28
2022-08-29T19:34:02.568Z,25.26
2022-08-29T19:36:30.251Z,25.11
2022-08-29T19:38:58.151Z,24.86
2022-08-29T19:41:26.488Z,24.76
2022-08-29T19:43:54.182Z,24.66
2022-08-29T19:46:24.001Z,24.51
2022-08-29T19:48:52.733Z,24.36
2022-08-29T19:51:24.482Z,24.27
2022-08-29T19:53:57.068Z,24.25
2022-08-29T19:56:26.562Z,24.32
2022-08-29T19:58:58.404Z,24.19
2022-08-29T20:01:26.822Z,24.08
2022-08-29T20:03:55.562Z,24.07
2022-08-29T20:06:23.371Z,23.96
2022-08-29T20:08:51.444Z,23.82
2022-08-29T20:11:25.998Z,23.83
2022-08-29T20:13:57.410Z,23.85
2022-08-29T20:16:32.719Z,23.88
2022-08-29T20:19:02.835Z,23.92
2022-08-29T20:21:34.915Z,23.81
2022-08-29T20:24:02.817Z,23.83
2022-08-29T20:26:35.738Z,23.78
2022-08-29T20:29:08.744Z,23.75
2022-08-29T20:31:37.720Z,23.78
2022-08-29T20:34:06.279Z,23.83
2022-08-29T20:36:53.301Z,23.93
2022-08-29T20:39:22.604Z,23.98
2022-08-29T20:41:57.485Z,24.00
2022-08-29T20:44:33.817Z,23.95
2022-08-29T20:47:02.067Z,23.90
2022-08-29T20:49:30.053Z,23.94
2022-08-29T20:51:57.799Z,23.97
2022-08-29T20:54:25.636Z,23.97
2022-08-29T20:56:53.580Z,23.99
2022-08-29T20:59:26.148Z,24.01
2022-08-29T21:01:55.637Z,23.94
2022-08-29T21:04:42.214Z,23.96
2022-08-29T21:07:13.556Z,23.97
2022-08-29T21:09:44.911Z,23.98
2022-08-29T21:12:14.870Z,24.06
2022-08-29T21:14:43.356Z,24.06
2022-08-29T21:17:13.507Z,23.89
2022-08-29T21:19:42.993Z,23.76
2022-08-29T21:22:13.094Z,23.67
2022-08-29T21:24:41.462Z,23.68
2022-08-29T21:27:10.626Z,23.68
2022-08-29T21:29:38.340Z,23.65
2022-08-29T21:32:06.578Z,23.54
2022-08-29T21:34:34.839Z,23.40
2022-08-29T21:37:02.499Z,23.33
2022-08-29T21:39:30.515Z,23.30
2022-08-29T21:42:02.712Z,23.29
2022-08-29T21:44:31.141Z,23.28
2022-08-29T21:46:59.017Z,23.24
2022-08-29T21:49:27.307Z,23.23
2022-08-29T21:51:55.107Z,23.04
2022-08-29T21:54:23.282Z,22.90
2022-08-29T21:56:51.209Z,22.86
2022-08-29T21:59:20.660Z,22.62
2022-08-29T22:01:54.866Z,22.44
2022-08-29T22:04:28.158Z,22.30
2022-08-29T22:06:59.334Z,22.26
2022-08-29T22:09:29.465Z,22.15
2022-08-29T22:11:57.912Z,22.08
2022-08-29T22:14:46.678Z,22.13
2022-08-29T22:22:00.741Z,22.22
2022-08-29T22:24:28.570Z,22.20
2022-08-29T22:26:59.344Z,22.25
2022-08-29T22:29:26.988Z,22.21
2022-08-29T22:31:56.520Z,22.22
2022-08-29T22:34:26.175Z,22.18
2022-08-29T22:36:54.269Z,22.22
2022-08-29T22:39:22.675Z,22.22
2022-08-29T22:41:50.560Z,22.31
2022-08-29T22:47:07.308Z,22.36
2022-08-29T22:49:35.423Z,22.37
2022-08-29T22:52:03.438Z,22.31
2022-08-29T22:54:37.505Z,22.29
2022-08-29T22:57:13.754Z,22.27
2022-08-29T22:59:43.414Z,22.23
2022-08-29T23:02:12.959Z,22.25
2022-08-29T23:04:40.881Z,22.37
2022-08-29T23:07:11.813Z,22.53
2022-08-29T23:09:42.700Z,22.64
2022-08-29T23:12:13.292Z,22.74
2022-08-29T23:14:43.738Z,22.84
2022-08-29T23:17:11.562Z,22.89
2022-08-29T23:19:41.288Z,23.00
2022-08-29T23:22:11.050Z,23.06
2022-08-29T23:24:51.612Z,23.10
2022-08-29T23:27:29.875Z,23.23
2022-08-29T23:30:01.030Z,23.31
2022-08-29T23:32:29.263Z,23.44
2022-08-29T23:34:57.159Z,23.61
2022-08-29T23:37:25.364Z,23.75
2022-08-29T23:39:52.833Z,23.90
2022-08-29T23:42:20.453Z,24.07
2022-08-29T23:44:48.385Z,24.19
2022-08-29T23:47:17.818Z,24.30
2022-08-29T23:49:45.332Z,24.35
2022-08-29T23:52:13.720Z,24.36
2022-08-29T23:54:41.464Z,24.38
2022-08-29T23:57:08.952Z,24.40
2022-08-29T23:59:55.283Z,24.44
